createdAt,value
2019-04-07T00:01:51.436Z,40.90
2019-04-07T00:04:21.565Z,40.85
2019-04-07T00:06:51.166Z,40.99
2019-04-07T00:09:20.596Z,41.03
2019-04-07T00:11:49.948Z,41.03
2019-04-07T00:14:19.411Z,41.08
2019-04-07T00:16:49.516Z,41.19
2019-04-07T00:19:19.074Z,41.32
2019-04-07T00:21:48.432Z,41.44
2019-04-07T00:24:18.067Z,41.45
2019-04-07T00:26:47.608Z,41.49
2019-04-07T00:29:17.428Z,41.58
2019-04-07T00:31:47.073Z,41.75
2019-04-07T00:34:16.438Z,42.00
2019-04-07T00:36:45.922Z,42.07
2019-04-07T00:39:15.398Z,42.01
2019-04-07T00:41:45.399Z,41.99
2019-04-07T00:44:15.599Z,42.00
2019-04-07T00:46:45.091Z,42.02
2019-04-07T00:49:14.875Z,42.01
2019-04-07T00:51:44.357Z,41.97
2019-04-07T00:54:13.707Z,41.89
2019-04-07T00:56:43.852Z,41.85
2019-04-07T00:59:13.514Z,41.76
2019-04-07T01:01:42.870Z,41.75
2019-04-07T01:04:12.321Z,41.79
2019-04-07T01:06:42.201Z,41.96
2019-04-07T01:09:11.601Z,42.02
2019-04-07T01:11:40.930Z,41.99
2019-04-07T01:14:10.917Z,41.92
2019-04-07T01:16:40.730Z,41.76
2019-04-07T01:19:10.367Z,41.73
2019-04-07T01:21:40.370Z,41.74
2019-04-07T01:24:09.892Z,41.79
2019-04-07T01:26:39.423Z,41.99
2019-04-07T01:29:09.205Z,42.18
2019-04-07T01:31:38.607Z,42.51
2019-04-07T01:34:10.622Z,42.68
2019-04-07T01:36:40.052Z,42.83
2019-04-07T01:39:11.052Z,42.83
2019-04-07T01:41:57.175Z,42.74
2019-04-07T01:44:43.894Z,42.71
2019-04-07T01:47:15.665Z,42.82
2019-04-07T01:49:45.150Z,43.03
2019-04-07T01:52:21.070Z,43.11
2019-04-07T01:54:53.663Z,43.10
2019-04-07T01:57:33.917Z,43.14
2019-04-07T02:00:24.926Z,43.19
2019-04-07T02:03:04.969Z,43.17
2019-04-07T02:05:43.191Z,43.21
2019-04-07T02:08:20.167Z,43.32
2019-04-07T02:10:57.125Z,43.63
2019-04-07T02:13:31.203Z,43.96
2019-04-07T02:16:05.326Z,43.99
2019-04-07T02:18:36.506Z,43.86
2019-04-07T02:21:23.982Z,43.98
2019-04-07T02:24:11.427Z,44.19
2019-04-07T02:26:58.712Z,44.06
2019-04-07T02:29:30.740Z,44.14
2019-04-07T02:32:06.024Z,44.13
2019-04-07T02:34:44.071Z,43.95
2019-04-07T02:37:15.341Z,43.90
2019-04-07T02:39:51.957Z,43.84
2019-04-07T02:42:39.522Z,43.72
2019-04-07T02:45:17.110Z,43.73
2019-04-07T02:47:58.402Z,43.94
2019-04-07T02:50:45.232Z,44.16
2019-04-07T02:53:25.273Z,44.27
2019-04-07T02:56:12.969Z,44.22
2019-04-07T02:58:47.779Z,44.17
2019-04-07T03:01:35.137Z,44.18
2019-04-07T03:04:09.555Z,44.06
2019-04-07T03:06:56.886Z,44.09
2019-04-07T03:09:38.257Z,44.14
2019-04-07T03:12:09.246Z,44.47
2019-04-07T03:14:53.154Z,44.72
2019-04-07T03:17:27.600Z,44.84
2019-04-07T03:20:08.631Z,44.98
2019-04-07T03:22:48.703Z,45.05
2019-04-07T03:25:20.786Z,45.17
2019-04-07T03:28:10.240Z,45.23
2019-04-07T03:30:42.015Z,45.26
2019-04-07T03:33:15.800Z,45.34
2019-04-07T03:35:48.509Z,45.21
2019-04-07T03:38:16.947Z,45.15
2019-04-07T03:40:48.185Z,45.14
2019-04-07T03:43:19.658Z,45.41
2019-04-07T03:45:53.910Z,45.82
2019-04-07T03:48:32.378Z,45.72
2019-04-07T03:51:06.957Z,45.61
2019-04-07T03:53:39.133Z,45.38
2019-04-07T03:56:10.244Z,45.20
2019-04-07T03:58:57.854Z,45.17
2019-04-07T04:01:35.622Z,45.01
2019-04-07T04:04:07.433Z,45.27
2019-04-07T04:06:56.901Z,45.37
2019-04-07T04:09:41.271Z,45.35
2019-04-07T04:12:10.729Z,45.54
2019-04-07T04:14:45.371Z,45.68
2019-04-07T04:17:14.962Z,45.59
2019-04-07T04:19:44.287Z,45.41
2019-04-07T04:22:14.173Z,45.16
2019-04-07T04:24:43.896Z,44.98
2019-04-07T04:27:13.358Z,45.01
2019-04-07T04:29:43.448Z,45.04
2019-04-07T04:32:13.421Z,45.02
2019-04-07T04:34:43.206Z,44.97
2019-04-07T04:37:12.770Z,45.04
2019-04-07T04:39:42.284Z,45.21
2019-04-07T04:42:11.629Z,45.24
2019-04-07T04:44:40.971Z,45.72
2019-04-07T04:47:10.418Z,45.82
2019-04-07T04:49:40.358Z,45.54
2019-04-07T04:52:11.544Z,45.25
2019-04-07T04:54:42.051Z,45.25
2019-04-07T04:57:11.485Z,45.27
2019-04-07T04:59:40.900Z,45.32
2019-04-07T05:02:10.778Z,45.28
2019-04-07T05:04:40.491Z,45.40
2019-04-07T05:07:10.182Z,45.38
2019-04-07T05:09:46.106Z,45.15
2019-04-07T05:12:10.744Z,45.02
2019-04-07T05:14:40.119Z,45.10
2019-04-07T05:17:10.073Z,45.12
2019-04-07T05:19:42.619Z,45.08
2019-04-07T05:22:10.603Z,45.07
2019-04-07T05:24:40.125Z,45.15
2019-04-07T05:27:09.724Z,45.18
2019-04-07T05:29:39.261Z,45.22
2019-04-07T05:32:08.851Z,45.19
2019-04-07T05:34:39.097Z,44.94
2019-04-07T05:37:08.742Z,45.03
2019-04-07T05:39:38.408Z,44.94
2019-04-07T05:42:08.042Z,44.97
2019-04-07T05:44:37.403Z,45.06
2019-04-07T05:47:07.125Z,45.19
2019-04-07T05:49:36.484Z,45.13
2019-04-07T05:52:06.600Z,45.03
2019-04-07T05:54:36.343Z,44.89
2019-04-07T05:57:05.744Z,44.84
2019-04-07T05:59:35.430Z,44.74
2019-04-07T06:02:05.103Z,44.67
2019-04-07T06:04:34.894Z,44.50
2019-04-07T06:07:04.603Z,44.25
2019-04-07T06:09:34.032Z,44.19
2019-04-07T06:12:08.498Z,44.15
2019-04-07T06:14:34.606Z,44.17
2019-04-07T06:17:04.819Z,44.07
2019-04-07T06:19:37.475Z,43.96
2019-04-07T06:22:07.499Z,43.97
2019-04-07T06:24:36.509Z,44.03
2019-04-07T06:27:05.950Z,44.09
2019-04-07T06:29:35.535Z,44.26
2019-04-07T06:32:05.590Z,44.23
2019-04-07T06:34:39.773Z,44.02
2019-04-07T06:37:07.680Z,43.80
2019-04-07T06:39:37.388Z,43.71
2019-04-07T06:42:07.513Z,43.56
2019-04-07T06:44:37.729Z,43.30
2019-04-07T06:47:13.180Z,42.97
2019-04-07T06:50:05.542Z,42.81
2019-04-07T06:52:40.760Z,42.72
2019-04-07T06:55:17.885Z,42.50
2019-04-07T06:57:52.995Z,42.06
2019-04-07T07:00:40.829Z,41.59
2019-04-07T07:03:20.670Z,41.71
2019-04-07T07:06:00.195Z,41.86
2019-04-07T07:08:46.077Z,41.72
2019-04-07T07:11:32.320Z,41.59
2019-04-07T07:14:30.017Z,41.14
2019-04-07T07:16:47.652Z,40.67
2019-04-07T07:19:33.760Z,40.31
2019-04-07T07:22:06.165Z,39.71
2019-04-07T07:24:33.959Z,39.35
2019-04-07T07:27:07.273Z,39.11
2019-04-07T07:29:35.152Z,38.62
2019-04-07T07:32:04.936Z,38.05
2019-04-07T07:34:34.323Z,37.64
2019-04-07T07:37:04.089Z,37.30
2019-04-07T07:39:34.087Z,36.75
2019-04-07T07:42:04.011Z,36.55
2019-04-07T07:44:35.882Z,36.44
2019-04-07T07:47:04.485Z,35.79
2019-04-07T07:49:36.082Z,35.14
2019-04-07T07:52:04.998Z,34.31
2019-04-07T07:54:35.132Z,33.96
2019-04-07T07:57:04.948Z,33.90
2019-04-07T07:59:37.990Z,33.83
2019-04-07T08:02:05.436Z,33.80
2019-04-07T08:04:35.585Z,33.26
2019-04-07T08:07:05.495Z,32.72
2019-04-07T08:09:34.890Z,32.40
2019-04-07T08:12:04.231Z,31.79
2019-04-07T08:14:33.585Z,31.28
2019-04-07T08:17:03.952Z,31.12
2019-04-07T08:19:33.518Z,30.42
2019-04-07T08:22:03.084Z,30.12
2019-04-07T08:24:32.715Z,29.87
2019-04-07T08:27:02.243Z,29.53
2019-04-07T08:29:32.398Z,29.04
2019-04-07T08:32:02.105Z,27.65
2019-04-07T08:34:32.936Z,27.12
2019-04-07T08:37:03.559Z,27.66
2019-04-07T08:39:35.476Z,27.68
2019-04-07T08:42:09.585Z,26.64
2019-04-07T08:44:35.457Z,26.48
2019-04-07T08:47:04.931Z,25.69
2019-04-07T08:49:35.412Z,25.84
2019-04-07T08:52:09.677Z,24.57
2019-04-07T08:54:36.864Z,24.95
2019-04-07T08:57:07.004Z,24.50
2019-04-07T08:59:39.889Z,25.02
2019-04-07T09:02:07.676Z,25.05
2019-04-07T09:04:37.068Z,25.01
2019-04-07T09:07:06.421Z,24.63
2019-04-07T09:09:38.025Z,23.61
2019-04-07T09:12:07.134Z,23.92
2019-04-07T09:14:38.755Z,22.98
2019-04-07T09:17:29.991Z,22.94
2019-04-07T09:19:49.647Z,22.94
2019-04-07T09:22:36.809Z,22.00
2019-04-07T09:25:25.071Z,21.43
2019-04-07T09:27:56.088Z,21.69
2019-04-07T09:30:27.314Z,21.11
2019-04-07T09:32:58.821Z,20.30
2019-04-07T09:35:36.247Z,20.67
2019-04-07T09:38:24.894Z,20.35
2019-04-07T09:41:11.157Z,20.20
2019-04-07T09:43:45.049Z,19.94
2019-04-07T09:46:31.131Z,19.25
2019-04-07T09:49:21.216Z,19.00
2019-04-07T09:51:50.652Z,19.28
2019-04-07T09:54:37.342Z,18.02
2019-04-07T09:57:12.222Z,18.88
2019-04-07T09:59:54.214Z,19.38
2019-04-07T10:02:31.820Z,18.46
2019-04-07T10:05:06.948Z,18.85
2019-04-07T10:07:51.819Z,18.94
2019-04-07T10:10:23.695Z,18.85
2019-04-07T10:13:00.606Z,19.31
2019-04-07T10:15:47.558Z,18.67
2019-04-07T10:18:34.891Z,18.98
2019-04-07T10:21:09.948Z,19.16
2019-04-07T10:23:50.901Z,19.49
2019-04-07T10:26:27.900Z,19.44
2019-04-07T10:28:59.507Z,19.67
2019-04-07T10:31:33.727Z,19.07
2019-04-07T10:34:16.542Z,18.86
2019-04-07T10:37:04.865Z,18.50
2019-04-07T10:39:36.009Z,19.01
2019-04-07T10:42:23.601Z,19.27
2019-04-07T10:45:07.267Z,18.78
2019-04-07T10:47:41.213Z,18.60
2019-04-07T10:50:12.503Z,18.55
2019-04-07T10:52:46.956Z,19.10
2019-04-07T10:55:34.148Z,19.35
2019-04-07T10:58:05.451Z,19.11
2019-04-07T11:00:48.985Z,18.99
2019-04-07T11:03:28.373Z,18.79
2019-04-07T11:06:07.227Z,19.26
2019-04-07T11:08:38.296Z,19.78
2019-04-07T11:11:07.897Z,20.17
2019-04-07T11:13:55.465Z,20.26
2019-04-07T11:16:35.597Z,20.31
2019-04-07T11:19:04.927Z,20.61
2019-04-07T11:21:41.658Z,21.19
2019-04-07T11:24:16.574Z,21.63
2019-04-07T11:26:51.755Z,21.00
2019-04-07T11:29:20.899Z,20.69
2019-04-07T11:31:58.350Z,20.09
2019-04-07T11:34:28.178Z,19.71
2019-04-07T11:36:59.500Z,20.01
2019-04-07T11:39:39.278Z,19.64
2019-04-07T11:42:25.160Z,19.51
2019-04-07T11:44:56.164Z,18.37
2019-04-07T11:47:25.348Z,18.49
2019-04-07T11:50:10.958Z,18.39
2019-04-07T11:52:48.305Z,19.56
2019-04-07T11:55:35.289Z,19.83
2019-04-07T11:58:13.500Z,20.23
2019-04-07T12:00:41.657Z,20.22
2019-04-07T12:03:28.890Z,20.02
2019-04-07T12:06:17.787Z,19.77
2019-04-07T12:08:55.699Z,18.85
2019-04-07T12:11:24.903Z,18.71
2019-04-07T12:14:01.669Z,19.32
2019-04-07T12:16:30.911Z,19.40
2019-04-07T12:19:01.969Z,19.04
2019-04-07T12:21:49.048Z,19.28
2019-04-07T12:24:32.549Z,19.68
2019-04-07T12:27:21.227Z,19.68
2019-04-07T12:29:51.600Z,19.62
2019-04-07T12:32:22.582Z,19.90
2019-04-07T12:35:01.138Z,19.89
2019-04-07T12:37:48.754Z,20.03
2019-04-07T12:40:23.235Z,19.73
2019-04-07T12:42:55.046Z,19.97
2019-04-07T12:45:28.794Z,19.96
2019-04-07T12:48:04.623Z,20.34
2019-04-07T12:50:54.137Z,21.12
2019-04-07T12:53:40.110Z,21.49
2019-04-07T12:56:09.680Z,22.04
2019-04-07T12:58:57.121Z,22.45
2019-04-07T13:01:47.262Z,23.01
2019-04-07T13:04:15.465Z,23.27
2019-04-07T13:06:46.931Z,23.37
2019-04-07T13:09:18.094Z,23.18
2019-04-07T13:11:52.749Z,23.12
2019-04-07T13:14:27.110Z,23.34
2019-04-07T13:17:17.013Z,23.66
2019-04-07T13:19:51.425Z,24.13
2019-04-07T13:22:26.214Z,23.97
2019-04-07T13:25:14.269Z,24.02
2019-04-07T13:27:45.523Z,24.02
2019-04-07T13:30:14.637Z,24.14
2019-04-07T13:32:50.457Z,24.36
2019-04-07T13:35:20.953Z,24.01
2019-04-07T13:38:00.112Z,24.22
2019-04-07T13:40:34.522Z,24.15
2019-04-07T13:43:13.410Z,24.74
2019-04-07T13:45:48.108Z,24.75
2019-04-07T13:48:25.880Z,24.62
2019-04-07T13:51:00.940Z,24.91
2019-04-07T13:53:47.837Z,25.34
2019-04-07T13:56:22.792Z,25.00
2019-04-07T13:59:11.259Z,25.23
2019-04-07T14:01:48.087Z,25.28
2019-04-07T14:04:18.237Z,25.54
2019-04-07T14:06:55.533Z,25.11
2019-04-07T14:09:32.526Z,25.37
2019-04-07T14:12:09.076Z,25.58
2019-04-07T14:14:37.224Z,25.93
2019-04-07T14:17:24.822Z,26.03
2019-04-07T14:20:03.821Z,26.18
2019-04-07T14:22:50.890Z,26.53
2019-04-07T14:25:31.028Z,26.88
2019-04-07T14:28:20.106Z,27.04
2019-04-07T14:31:07.600Z,27.12
2019-04-07T14:33:55.601Z,27.47
2019-04-07T14:36:43.820Z,27.83
2019-04-07T14:39:31.479Z,28.01
2019-04-07T14:42:04.536Z,28.27
2019-04-07T14:44:41.211Z,28.51
2019-04-07T14:47:18.631Z,28.54
2019-04-07T14:49:57.261Z,28.51
2019-04-07T14:52:33.749Z,28.68
2019-04-07T14:55:20.730Z,28.89
2019-04-07T14:58:00.201Z,28.77
2019-04-07T15:00:39.894Z,29.08
2019-04-07T15:03:09.444Z,29.28
2019-04-07T15:05:40.734Z,29.48
2019-04-07T15:08:15.230Z,29.87
2019-04-07T15:10:52.772Z,30.15
2019-04-07T15:13:28.178Z,30.25
2019-04-07T15:15:59.095Z,30.59
2019-04-07T15:18:28.643Z,31.54
2019-04-07T15:20:58.153Z,31.60
2019-04-07T15:23:29.428Z,32.02
2019-04-07T15:25:59.050Z,32.84
2019-04-07T15:28:30.683Z,34.06
2019-04-07T15:30:59.577Z,34.84
2019-04-07T15:33:31.430Z,34.95
2019-04-07T15:36:00.053Z,35.07
2019-04-07T15:38:29.095Z,35.25
2019-04-07T15:40:59.642Z,35.37
2019-04-07T15:43:33.291Z,35.68
2019-04-07T15:46:01.285Z,35.80
2019-04-07T15:48:31.669Z,36.41
2019-04-07T15:51:04.636Z,36.52
2019-04-07T15:53:32.917Z,36.14
2019-04-07T15:56:06.381Z,36.31
2019-04-07T15:58:33.858Z,36.19
2019-04-07T16:01:06.762Z,36.38
2019-04-07T16:03:35.625Z,36.12
2019-04-07T16:06:05.740Z,35.76
2019-04-07T16:08:35.322Z,35.91
2019-04-07T16:11:05.021Z,35.40
2019-04-07T16:13:34.484Z,35.52
2019-04-07T16:16:03.944Z,35.16
2019-04-07T16:18:37.038Z,35.42
2019-04-07T16:21:07.147Z,35.45
2019-04-07T16:23:36.324Z,35.65
2019-04-07T16:26:06.638Z,35.69
2019-04-07T16:28:36.145Z,35.90
2019-04-07T16:31:06.556Z,35.92
2019-04-07T16:33:37.197Z,35.83
2019-04-07T16:36:06.702Z,36.10
2019-04-07T16:38:36.526Z,35.83
2019-04-07T16:41:06.583Z,36.00
2019-04-07T16:43:37.754Z,35.97
2019-04-07T16:46:07.737Z,35.92
2019-04-07T16:48:40.061Z,36.10
2019-04-07T16:51:09.176Z,36.56
2019-04-07T16:53:41.687Z,37.04
2019-04-07T16:56:09.736Z,37.70
2019-04-07T16:58:40.130Z,38.14
2019-04-07T17:01:09.595Z,38.90
2019-04-07T17:03:39.808Z,39.51
2019-04-07T17:06:12.004Z,40.21
2019-04-07T17:08:40.293Z,41.25
2019-04-07T17:11:09.775Z,41.40
2019-04-07T17:13:41.758Z,41.79
2019-04-07T17:16:11.938Z,41.86
2019-04-07T17:18:43.130Z,42.17
2019-04-07T17:21:18.839Z,42.49
2019-04-07T17:23:48.312Z,42.27
2019-04-07T17:26:18.133Z,42.43
2019-04-07T17:28:49.557Z,42.75
2019-04-07T17:31:18.845Z,42.79
2019-04-07T17:33:48.920Z,42.87
2019-04-07T17:36:21.196Z,43.08
2019-04-07T17:38:51.944Z,43.47
2019-04-07T17:41:21.512Z,43.46
2019-04-07T17:43:59.042Z,43.59
2019-04-07T17:46:32.568Z,43.86
2019-04-07T17:49:04.450Z,43.87
2019-04-07T17:51:51.245Z,43.91
2019-04-07T17:54:39.631Z,43.95
2019-04-07T17:57:13.372Z,43.93
2019-04-07T17:59:48.463Z,43.99
2019-04-07T18:02:36.478Z,44.15
2019-04-07T18:05:26.479Z,44.35
2019-04-07T18:08:11.853Z,44.45
2019-04-07T18:10:57.864Z,44.52
2019-04-07T18:13:33.135Z,44.61
2019-04-07T18:16:01.715Z,44.75
2019-04-07T18:18:49.789Z,44.25
2019-04-07T18:21:24.019Z,44.50
2019-04-07T18:24:03.678Z,44.69
2019-04-07T18:26:35.455Z,44.73
2019-04-07T18:29:28.774Z,44.58
2019-04-07T18:32:01.970Z,44.53
2019-04-07T18:34:49.631Z,44.85
2019-04-07T18:37:40.042Z,45.14
2019-04-07T18:40:08.862Z,44.99
2019-04-07T18:42:44.429Z,44.72
2019-04-07T18:45:30.798Z,43.92
2019-04-07T18:48:18.150Z,43.77
2019-04-07T18:50:55.213Z,43.54
2019-04-07T18:53:42.803Z,43.85
2019-04-07T18:56:17.541Z,43.92
2019-04-07T18:58:52.320Z,44.12
2019-04-07T19:01:41.404Z,44.22
2019-04-07T19:04:17.315Z,44.38
2019-04-07T19:06:49.666Z,44.51
2019-04-07T19:09:36.757Z,44.81
2019-04-07T19:12:18.669Z,44.96
2019-04-07T19:14:52.385Z,45.13
2019-04-07T19:17:26.058Z,44.94
2019-04-07T19:20:06.272Z,45.10
2019-04-07T19:22:54.044Z,45.36
2019-04-07T19:25:29.145Z,45.38
2019-04-07T19:28:03.484Z,45.28
2019-04-07T19:30:43.622Z,45.30
2019-04-07T19:33:14.871Z,45.07
2019-04-07T19:35:55.127Z,44.64
2019-04-07T19:38:30.637Z,44.78
2019-04-07T19:41:04.755Z,44.89
2019-04-07T19:43:35.945Z,44.72
2019-04-07T19:46:15.932Z,44.48
2019-04-07T19:48:47.048Z,44.44
2019-04-07T19:51:30.611Z,44.53
2019-04-07T19:54:19.030Z,44.59
2019-04-07T19:56:50.521Z,44.88
2019-04-07T19:59:30.313Z,44.87
2019-04-07T20:02:04.029Z,45.00
2019-04-07T20:04:37.347Z,45.01
2019-04-07T20:07:14.170Z,44.95
2019-04-07T20:09:48.761Z,44.96
2019-04-07T20:12:20.642Z,44.89
2019-04-07T20:14:58.594Z,45.13
2019-04-07T20:17:25.969Z,45.08
2019-04-07T20:20:09.293Z,45.20
2019-04-07T20:22:39.078Z,45.32
2019-04-07T20:25:17.103Z,45.57
2019-04-07T20:27:46.987Z,45.43
2019-04-07T20:30:17.504Z,45.38
2019-04-07T20:33:04.781Z,45.21
2019-04-07T20:35:52.181Z,45.20
2019-04-07T20:38:27.652Z,45.27
2019-04-07T20:41:14.508Z,45.35
2019-04-07T20:43:47.359Z,45.47
2019-04-07T20:46:34.490Z,45.48
2019-04-07T20:49:15.839Z,45.49
2019-04-07T20:51:54.463Z,45.56
2019-04-07T20:54:23.783Z,45.67
2019-04-07T20:56:52.904Z,45.78
2019-04-07T20:59:37.139Z,45.70
2019-04-07T21:02:11.233Z,45.67
2019-04-07T21:04:53.067Z,45.96
2019-04-07T21:07:21.580Z,45.95
2019-04-07T21:09:58.122Z,45.92
2019-04-07T21:12:38.977Z,45.90
2019-04-07T21:15:30.028Z,45.90
2019-04-07T21:17:58.261Z,45.99
2019-04-07T21:20:46.401Z,45.99
2019-04-07T21:23:20.743Z,46.06
2019-04-07T21:26:01.494Z,46.27
2019-04-07T21:28:37.761Z,46.28
2019-04-07T21:31:06.445Z,46.38
2019-04-07T21:33:41.273Z,46.36
2019-04-07T21:36:28.696Z,46.24
2019-04-07T21:39:02.384Z,46.23
2019-04-07T21:41:33.393Z,46.19
2019-04-07T21:44:20.849Z,46.18
2019-04-07T21:46:54.796Z,46.04
2019-04-07T21:49:34.745Z,46.33
2019-04-07T21:52:01.136Z,46.51
2019-04-07T21:54:40.938Z,46.64
2019-04-07T21:57:26.847Z,46.89
2019-04-07T22:00:11.211Z,47.09
2019-04-07T22:02:58.243Z,47.16
2019-04-07T22:05:29.286Z,47.64
2019-04-07T22:08:14.435Z,48.39
2019-04-07T22:10:40.275Z,48.29
2019-04-07T22:13:09.989Z,48.42
2019-04-07T22:15:47.346Z,48.43
2019-04-07T22:18:11.153Z,48.39
2019-04-07T22:20:40.693Z,48.43
2019-04-07T22:23:10.150Z,48.36
2019-04-07T22:25:48.319Z,48.43
2019-04-07T22:28:18.490Z,48.25
2019-04-07T22:30:50.872Z,48.43
2019-04-07T22:33:25.127Z,48.28
2019-04-07T22:35:51.536Z,48.39
2019-04-07T22:38:23.334Z,48.26
2019-04-07T22:40:52.159Z,48.28
2019-04-07T22:43:21.724Z,48.12
2019-04-07T22:45:58.857Z,48.06
2019-04-07T22:48:24.597Z,48.00
2019-04-07T22:50:53.875Z,48.14
2019-04-07T22:53:27.070Z,48.02
2019-04-07T22:55:54.790Z,48.08
2019-04-07T22:58:24.325Z,48.11
2019-04-07T23:00:54.297Z,48.02
2019-04-07T23:03:23.993Z,48.03
2019-04-07T23:05:53.434Z,48.03
2019-04-07T23:08:22.858Z,48.02
2019-04-07T23:10:52.194Z,48.13
2019-04-07T23:13:21.755Z,47.97
2019-04-07T23:15:51.085Z,47.98
2019-04-07T23:18:20.899Z,48.06
2019-04-07T23:20:51.420Z,48.17
2019-04-07T23:23:21.795Z,47.98
2019-04-07T23:25:53.552Z,47.98
2019-04-07T23:28:23.150Z,48.04
2019-04-07T23:30:52.591Z,48.17
2019-04-07T23:33:22.323Z,48.24
2019-04-07T23:35:51.636Z,48.31
2019-04-07T23:38:21.864Z,48.31
2019-04-07T23:40:51.567Z,48.31
2019-04-07T23:43:21.622Z,48.33
2019-04-07T23:45:51.709Z,48.32
2019-04-07T23:48:22.179Z,48.36
2019-04-07T23:50:52.022Z,48.54
2019-04-07T23:54:11.307Z,48.59
2019-04-07T23:56:42.102Z,48.61
2019-04-07T23:59:11.499Z,49.16
